Time;durP1;ratioP1;P1;durP2;ratioP2;P2;SDS_P1;SDS_P2;PMS_P1;PMS_P2;Temp;Humidity;BMP_temperature;BMP_pressure;BME280_temperature;BME280_humidity;BME280_pressure;Samples;Min_cycle;Max_cycle;Signal;HPM_P1;HPM_P2
2024/04/19 00:02:09;;;;;;;4.50;3.95;;;;;;;;;;5310213;26;20002;-70
2024/04/19 00:04:35;;;;;;;5.07;3.60;;;;;;;;;;5309266;27;20005;-70
2024/04/19 00:07:01;;;;;;;4.70;4.00;;;;;;;;;;5310401;27;20017;-71
2024/04/19 00:09:27;;;;;;;6.45;4.22;;;;;;;;;;5309826;26;20013;-70
2024/04/19 00:11:53;;;;;;;5.28;3.55;;;;;;;;;;5309785;27;20008;-71
2024/04/19 00:14:19;;;;;;;6.18;4.07;;;;;;;;;;5309494;26;20458;-70
2024/04/19 00:16:45;;;;;;;5.82;4.30;;;;;;;;;;5309594;26;20001;-71
2024/04/19 00:19:11;;;;;;;4.95;3.65;;;;;;;;;;5310190;26;20002;-70
2024/04/19 00:21:37;;;;;;;6.55;3.75;;;;;;;;;;5309536;27;20006;-71
2024/04/19 00:24:03;;;;;;;5.93;4.15;;;;;;;;;;5310512;27;19997;-71
2024/04/19 00:26:29;;;;;;;5.85;4.40;;;;;;;;;;5308718;27;20029;-70
2024/04/19 00:28:55;;;;;;;5.60;4.40;;;;;;;;;;5309525;27;20013;-71
2024/04/19 00:31:21;;;;;;;6.72;4.63;;;;;;;;;;5309448;27;19997;-70
2024/04/19 00:33:47;;;;;;;5.70;4.10;;;;;;;;;;5309527;27;20087;-70
2024/04/19 00:36:13;;;;;;;11.13;4.80;;;;;;;;;;5309325;26;19997;-71
2024/04/19 00:38:39;;;;;;;7.70;5.43;;;;;;;;;;5309289;27;20005;-71
2024/04/19 00:41:05;;;;;;;7.80;5.88;;;;;;;;;;5310113;27;20422;-71
2024/04/19 00:43:31;;;;;;;7.80;4.97;;;;;;;;;;5308551;26;20041;-70
2024/04/19 00:45:58;;;;;;;7.30;4.93;;;;;;;;;;5302135;26;21569;-71
2024/04/19 00:48:25;;;;;;;6.55;4.80;;;;;;;;;;5304651;27;20056;-71
2024/04/19 00:50:56;;;;;;;5.80;4.50;;;;;;;;;;5311424;26;20086;-71
2024/04/19 00:53:27;;;;;;;6.55;5.07;;;;;;;;;;5308408;26;20044;-71
2024/04/19 00:55:54;;;;;;;6.65;5.35;;;;;;;;;;5310135;26;20001;-71
2024/04/19 00:58:20;;;;;;;6.88;4.80;;;;;;;;;;5308349;26;20013;-70
2024/04/19 01:00:46;;;;;;;8.25;5.57;;;;;;;;;;5310313;26;20013;-72
2024/04/19 01:03:12;;;;;;;8.60;4.90;;;;;;;;;;5301278;26;20011;-70
2024/04/19 01:05:39;;;;;;;7.05;4.72;;;;;;;;;;5308535;26;20553;-71
2024/04/19 01:08:05;;;;;;;6.38;4.95;;;;;;;;;;5309226;26;20002;-71
2024/04/19 01:10:32;;;;;;;7.32;5.05;;;;;;;;;;5308812;26;20519;-70
2024/04/19 01:12:58;;;;;;;7.57;5.43;;;;;;;;;;5309034;26;20008;-71
2024/04/19 01:15:25;;;;;;;7.47;5.05;;;;;;;;;;5308872;26;20012;-71
2024/04/19 01:17:51;;;;;;;9.15;5.28;;;;;;;;;;5302548;26;22364;-71
2024/04/19 01:20:17;;;;;;;8.35;5.53;;;;;;;;;;5304641;26;20013;-71
2024/04/19 01:22:44;;;;;;;7.07;4.90;;;;;;;;;;5308868;26;20020;-71
2024/04/19 01:25:13;;;;;;;7.07;5.03;;;;;;;;;;5309474;26;20008;-71
2024/04/19 01:27:39;;;;;;;7.20;5.22;;;;;;;;;;5308732;26;20075;-70
2024/04/19 01:30:06;;;;;;;6.70;5.32;;;;;;;;;;5308840;26;20010;-70
2024/04/19 01:32:32;;;;;;;7.30;5.18;;;;;;;;;;5308328;26;20052;-71
2024/04/19 01:34:58;;;;;;;8.75;5.38;;;;;;;;;;5309433;26;19998;-71
2024/04/19 01:37:24;;;;;;;6.50;4.90;;;;;;;;;;5299324;26;20086;-71
2024/04/19 01:39:50;;;;;;;7.13;5.10;;;;;;;;;;5306349;27;20002;-70
2024/04/19 01:42:15;;;;;;;6.93;4.68;;;;;;;;;;5306866;27;20037;-70
2024/04/19 01:44:41;;;;;;;5.88;4.50;;;;;;;;;;5309177;26;20461;-71
2024/04/19 01:47:07;;;;;;;6.97;4.97;;;;;;;;;;5308578;26;20008;-70
2024/04/19 01:49:33;;;;;;;6.45;4.95;;;;;;;;;;5312258;26;20501;-69
2024/04/19 01:51:59;;;;;;;6.30;4.97;;;;;;;;;;5301955;26;19998;-69
2024/04/19 01:54:25;;;;;;;7.35;5.18;;;;;;;;;;5310195;27;20449;-69
2024/04/19 01:56:53;;;;;;;7.05;5.10;;;;;;;;;;5311628;26;20005;-69
2024/04/19 01:59:19;;;;;;;6.35;4.63;;;;;;;;;;5311836;26;20001;-69
2024/04/19 02:01:45;;;;;;;7.85;5.13;;;;;;;;;;5311719;26;20001;-71
2024/04/19 02:04:11;;;;;;;8.02;4.75;;;;;;;;;;5311433;26;19998;-70
2024/04/19 02:06:37;;;;;;;7.68;4.78;;;;;;;;;;5310892;26;20001;-70
2024/04/19 02:09:04;;;;;;;6.50;4.80;;;;;;;;;;5312261;26;19997;-71
2024/04/19 02:11:30;;;;;;;7.20;4.70;;;;;;;;;;5303775;26;20079;-70
2024/04/19 02:13:56;;;;;;;5.90;4.57;;;;;;;;;;5311010;26;20072;-70
2024/04/19 02:16:21;;;;;;;7.70;5.07;;;;;;;;;;5311391;26;20037;-70
2024/04/19 02:18:48;;;;;;;6.45;4.78;;;;;;;;;;5311890;26;20016;-70
2024/04/19 02:21:14;;;;;;;7.00;5.15;;;;;;;;;;5311227;26;20049;-70
2024/04/19 02:23:40;;;;;;;7.30;4.95;;;;;;;;;;5311078;26;20013;-71
2024/04/19 02:26:07;;;;;;;8.57;4.70;;;;;;;;;;5312098;26;19993;-71
2024/04/19 02:31:18;;;;;;;6.32;5.00;;;;;;;;;;5311389;26;20069;-70
2024/04/19 02:33:45;;;;;;;8.95;5.60;;;;;;;;;;5311268;26;20016;-71
2024/04/19 02:36:11;;;;;;;7.10;5.18;;;;;;;;;;5311974;26;19997;-70
2024/04/19 02:38:37;;;;;;;7.70;5.75;;;;;;;;;;5309940;26;20016;-70
2024/04/19 02:41:03;;;;;;;8.85;5.22;;;;;;;;;;5311815;26;20009;-70
2024/04/19 02:43:29;;;;;;;10.65;5.65;;;;;;;;;;5310933;26;20002;-69
2024/04/19 02:45:55;;;;;;;7.70;5.40;;;;;;;;;;5303423;26;20078;-69
2024/04/19 02:48:21;;;;;;;7.25;5.28;;;;;;;;;;5309919;27;20006;-70
2024/04/19 02:50:50;;;;;;;8.52;5.88;;;;;;;;;;5312399;26;20002;-69
2024/04/19 02:53:17;;;;;;;9.95;5.40;;;;;;;;;;5310825;26;20002;-68
2024/04/19 02:55:43;;;;;;;7.57;5.85;;;;;;;;;;5311042;26;20001;-69
2024/04/19 02:58:09;;;;;;;9.05;5.80;;;;;;;;;;5306256;26;20038;-71
2024/04/19 03:00:35;;;;;;;10.60;6.05;;;;;;;;;;5305381;27;20882;-71
2024/04/19 03:03:01;;;;;;;12.90;7.00;;;;;;;;;;5310819;26;20006;-71
2024/04/19 03:05:27;;;;;;;12.27;6.40;;;;;;;;;;5314944;26;20009;-70
2024/04/19 03:07:53;;;;;;;10.05;6.07;;;;;;;;;;5326447;26;20005;-70
2024/04/19 03:10:19;;;;;;;9.27;6.65;;;;;;;;;;5339836;26;19997;-70
2024/04/19 03:12:45;;;;;;;9.15;6.57;;;;;;;;;;5345322;26;20005;-70
2024/04/19 03:15:11;;;;;;;8.40;5.95;;;;;;;;;;5346048;26;20016;-70
2024/04/19 03:17:37;;;;;;;10.85;6.63;;;;;;;;;;5307639;26;20017;-69
2024/04/19 03:20:03;;;;;;;11.30;6.50;;;;;;;;;;5317656;26;20648;-70
2024/04/19 03:22:29;;;;;;;11.15;6.38;;;;;;;;;;5343947;26;20005;-71
2024/04/19 03:24:55;;;;;;;11.38;6.43;;;;;;;;;;5345824;26;19999;-71
2024/04/19 03:27:21;;;;;;;9.68;6.68;;;;;;;;;;5343633;26;20013;-69
2024/04/19 03:29:53;;;;;;;10.93;6.78;;;;;;;;;;5345656;26;20074;-69
2024/04/19 03:32:19;;;;;;;9.43;6.25;;;;;;;;;;5344074;26;19997;-68
2024/04/19 03:34:45;;;;;;;9.45;6.10;;;;;;;;;;5327909;26;20095;-71
2024/04/19 03:37:11;;;;;;;8.68;5.88;;;;;;;;;;5329690;26;20001;-70
2024/04/19 03:39:37;;;;;;;13.15;7.10;;;;;;;;;;5344827;26;20003;-70
2024/04/19 03:42:10;;;;;;;12.55;6.10;;;;;;;;;;5345101;26;20446;-70
2024/04/19 03:47:21;;;;;;;13.80;7.43;;;;;;;;;;5343876;26;20007;-70
2024/04/19 03:49:47;;;;;;;11.65;7.00;;;;;;;;;;5338261;26;19997;-70
2024/04/19 03:52:13;;;;;;;11.20;6.88;;;;;;;;;;5326881;26;20005;-70
2024/04/19 03:54:39;;;;;;;9.73;6.78;;;;;;;;;;5323075;26;20005;-70
2024/04/19 03:57:04;;;;;;;9.95;6.50;;;;;;;;;;5344388;26;20011;-70
2024/04/19 03:59:30;;;;;;;12.85;6.97;;;;;;;;;;5342969;26;20377;-70
2024/04/19 04:01:56;;;;;;;8.85;6.43;;;;;;;;;;5319673;26;20001;-70
2024/04/19 04:04:22;;;;;;;9.27;5.85;;;;;;;;;;5339206;26;20466;-70
2024/04/19 04:06:48;;;;;;;9.85;7.18;;;;;;;;;;5341696;26;20016;-70
2024/04/19 04:09:14;;;;;;;10.98;7.13;;;;;;;;;;5302585;26;20405;-70
2024/04/19 04:11:40;;;;;;;9.15;6.85;;;;;;;;;;5342970;26;20017;-70
2024/04/19 04:14:08;;;;;;;9.02;5.70;;;;;;;;;;5350585;26;20074;-71
2024/04/19 04:16:34;;;;;;;11.23;6.75;;;;;;;;;;5344479;26;20001;-68
2024/04/19 04:19:00;;;;;;;13.25;7.07;;;;;;;;;;5332721;26;20016;-71
2024/04/19 04:21:26;;;;;;;9.88;6.07;;;;;;;;;;5336976;26;20078;-70
2024/04/19 04:23:52;;;;;;;8.52;6.47;;;;;;;;;;5343409;26;20309;-70
2024/04/19 04:26:18;;;;;;;10.48;7.07;;;;;;;;;;5323348;26;20006;-70
2024/04/19 04:28:44;;;;;;;13.48;7.20;;;;;;;;;;5343681;26;20388;-70
2024/04/19 04:31:10;;;;;;;9.50;6.47;;;;;;;;;;5345425;26;19997;-70
2024/04/19 04:33:36;;;;;;;9.45;6.35;;;;;;;;;;5343279;26;20674;-70
2024/04/19 04:36:02;;;;;;;12.57;7.13;;;;;;;;;;5344822;26;20000;-70
2024/04/19 04:38:28;;;;;;;9.02;6.63;;;;;;;;;;5343530;26;20011;-70
2024/04/19 04:40:54;;;;;;;11.80;6.85;;;;;;;;;;5345160;26;20016;-70
2024/04/19 04:43:20;;;;;;;9.45;6.40;;;;;;;;;;5329438;26;21304;-70
2024/04/19 04:45:46;;;;;;;11.25;6.75;;;;;;;;;;5334410;26;20044;-72
2024/04/19 04:48:12;;;;;;;9.25;5.90;;;;;;;;;;5344210;26;20441;-72
2024/04/19 04:50:38;;;;;;;11.98;6.15;;;;;;;;;;5331142;26;19997;-71
2024/04/19 04:53:04;;;;;;;10.60;6.13;;;;;;;;;;5344417;26;20008;-71
2024/04/19 04:55:31;;;;;;;8.10;5.95;;;;;;;;;;5343362;26;20350;-72
2024/04/19 04:57:57;;;;;;;9.30;6.65;;;;;;;;;;5343628;26;20012;-76
2024/04/19 05:00:28;;;;;;;8.45;6.00;;;;;;;;;;5344168;26;20015;-70
2024/04/19 05:02:53;;;;;;;9.55;6.60;;;;;;;;;;5313399;26;20013;-70
2024/04/19 05:05:19;;;;;;;13.70;6.00;;;;;;;;;;5335368;26;20001;-71
2024/04/19 05:07:45;;;;;;;9.18;6.13;;;;;;;;;;5342209;26;20009;-69
2024/04/19 05:10:12;;;;;;;9.68;6.28;;;;;;;;;;5314540;26;20048;-73
2024/04/19 05:12:37;;;;;;;10.20;6.47;;;;;;;;;;5318261;26;20001;-72
2024/04/19 05:15:04;;;;;;;12.93;7.20;;;6.20;99.90;;;;;;5309099;26;20021;-73
2024/04/19 05:17:29;;;;;;;9.93;6.82;;;6.20;99.90;;;;;;5333586;26;20037;-72
2024/04/19 05:19:55;;;;;;;11.63;7.00;;;6.20;99.90;;;;;;5305286;26;20001;-72
2024/04/19 05:22:21;;;;;;;10.15;7.30;;;6.20;99.90;;;;;;5330699;26;20020;-73
2024/04/19 05:24:46;;;;;;;9.25;6.00;;;6.20;99.90;;;;;;5336235;26;20053;-72
2024/04/19 05:27:12;;;;;;;11.68;6.63;;;6.10;99.90;;;;;;5322485;26;19998;-71
2024/04/19 05:29:37;;;;;;;9.85;6.07;;;6.20;99.90;;;;;;5318119;26;20001;-73
2024/04/19 05:32:03;;;;;;;14.95;8.00;;;6.20;99.90;;;;;;5327231;26;20019;-72
2024/04/19 05:34:29;;;;;;;11.27;6.57;;;6.20;99.90;;;;;;5323766;26;20046;-71
2024/04/19 05:36:54;;;;;;;13.63;6.82;;;6.20;99.90;;;;;;5346992;26;20001;-72
2024/04/19 05:39:20;;;;;;;12.07;7.10;;;6.20;99.90;;;;;;5308421;26;20017;-72
2024/04/19 05:41:46;;;;;;;11.55;7.20;;;6.20;99.90;;;;;;5346185;26;20438;-73
2024/04/19 05:44:18;;;;;;;9.15;6.50;;;6.20;99.90;;;;;;5344283;26;21568;-72
2024/04/19 05:46:47;;;;;;;11.77;6.68;;;6.20;99.90;;;;;;5346960;26;20080;-72
2024/04/19 05:49:12;;;;;;;11.95;6.57;;;6.20;99.90;;;;;;5317395;26;20009;-73
2024/04/19 05:51:38;;;;;;;11.95;6.60;;;6.40;99.90;;;;;;5329336;26;20033;-72
2024/04/19 05:54:04;;;;;;;10.18;5.97;;;6.40;99.90;;;;;;5346722;26;20008;-72
2024/04/19 05:56:29;;;;;;;11.98;6.93;;;6.40;99.90;;;;;;5320123;26;20009;-72
2024/04/19 05:58:57;;;;;;;10.20;6.50;;;6.50;99.90;;;;;;5343397;26;20012;-74
2024/04/19 06:01:23;;;;;;;8.57;5.85;;;6.50;99.90;;;;;;5346475;26;20073;-72
2024/04/19 06:03:49;;;;;;;11.00;6.28;;;6.60;99.90;;;;;;5319980;26;20017;-73
2024/04/19 06:06:15;;;;;;;10.75;5.60;;;6.60;99.90;;;;;;5328782;26;20005;-71
2024/04/19 06:08:41;;;;;;;10.57;6.38;;;6.60;99.90;;;;;;5334615;26;20075;-73
2024/04/19 06:11:06;;;;;;;9.25;5.40;;;6.60;99.90;;;;;;5347057;26;20048;-72
2024/04/19 06:13:32;;;;;;;9.85;5.30;;;6.70;99.90;;;;;;5344106;26;20625;-72
2024/04/19 06:15:58;;;;;;;8.70;5.25;;;6.70;99.90;;;;;;5336041;26;20009;-73
2024/04/19 06:18:23;;;;;;;8.27;5.50;;;6.90;99.90;;;;;;5304186;26;20008;-72
2024/04/19 06:20:49;;;;;;;7.70;4.97;;;6.90;99.90;;;;;;5258146;26;20500;-72
2024/04/19 06:23:15;;;;;;;8.82;5.47;;;7.00;99.90;;;;;;5322170;26;19997;-70
2024/04/19 06:25:40;;;;;;;8.32;5.25;;;7.00;99.90;;;;;;5320366;26;20001;-71
2024/04/19 06:28:06;;;;;;;9.30;6.03;;;7.10;99.90;;;;;;5315738;26;20429;-70
2024/04/19 06:30:31;;;;;;;7.25;5.10;;;7.20;99.90;;;;;;5296810;26;20006;-70
2024/04/19 06:32:57;;;;;;;9.05;5.00;;;7.20;99.90;;;;;;5317278;26;20017;-68
2024/04/19 06:35:23;;;;;;;7.80;4.93;;;7.30;99.90;;;;;;5303926;26;20013;-71
2024/04/19 06:37:48;;;;;;;8.77;4.50;;;7.30;99.90;;;;;;5295424;26;20002;-71
2024/04/19 06:40:14;;;;;;;8.25;4.45;;;7.30;99.90;;;;;;5320200;26;19998;-70
2024/04/19 06:42:40;;;;;;;7.63;4.90;;;7.40;99.90;;;;;;5333097;26;20013;-70
2024/04/19 06:45:06;;;;;;;7.07;4.18;;;7.40;99.90;;;;;;5305742;26;19998;-70
2024/04/19 06:47:32;;;;;;;5.65;4.05;;;7.50;99.90;;;;;;5316003;26;20033;-68
2024/04/19 06:49:58;;;;;;;6.70;4.38;;;7.60;99.90;;;;;;5319895;26;20016;-69
2024/04/19 06:52:24;;;;;;;5.88;4.07;;;7.70;99.90;;;;;;5314759;26;20001;-70
2024/04/19 06:54:50;;;;;;;6.68;4.03;;;7.70;99.90;;;;;;5330176;26;20013;-69
2024/04/19 06:57:17;;;;;;;7.10;4.13;;;7.70;99.90;;;;;;5323283;26;20015;-69
2024/04/19 06:59:43;;;;;;;5.50;4.10;;;7.60;99.90;;;;;;5325695;26;20005;-69
2024/04/19 07:02:08;;;;;;;7.40;4.20;;;7.60;99.90;;;;;;5300767;26;20013;-70
2024/04/19 07:04:34;;;;;;;5.68;3.78;;;7.70;99.90;;;;;;5309935;26;19997;-70
2024/04/19 07:06:59;;;;;;;7.40;4.00;;;7.80;99.90;;;;;;5322350;26;20029;-70
2024/04/19 07:09:25;;;;;;;5.97;4.00;;;7.90;99.90;;;;;;5304870;26;20012;-70
2024/04/19 07:11:53;;;;;;;7.22;4.05;;;;;;;;;;5337505;26;20031;-70
2024/04/19 07:14:20;;;;;;;5.78;3.22;;;;;;;;;;5332264;26;20029;-70
2024/04/19 07:16:46;;;;;;;5.75;3.63;;;;;;;;;;5324869;26;20004;-70
2024/04/19 07:19:12;;;;;;;7.40;3.45;;;;;;;;;;5322743;26;20004;-70
2024/04/19 07:21:38;;;;;;;7.55;3.75;;;;;;;;;;5313901;26;20027;-70
2024/04/19 07:24:07;;;;;;;6.32;3.47;;;;;;;;;;5327484;26;20378;-71
2024/04/19 07:26:34;;;;;;;5.80;4.00;;;;;;;;;;5348262;26;20016;-71
2024/04/19 07:29:00;;;;;;;5.28;3.65;;;;;;;;;;5329801;26;20001;-71
2024/04/19 07:31:26;;;;;;;6.25;4.05;;;;;;;;;;5322213;26;19997;-70
2024/04/19 07:33:53;;;;;;;5.05;3.83;;;;;;;;;;5308926;26;19998;-70
2024/04/19 07:36:19;;;;;;;5.75;3.83;;;;;;;;;;5314386;26;20001;-70
2024/04/19 07:38:45;;;;;;;4.97;3.65;;;;;;;;;;5308937;26;20342;-70
2024/04/19 07:41:11;;;;;;;7.82;4.28;;;;;;;;;;5324377;26;20001;-70
2024/04/19 07:43:38;;;;;;;5.82;4.03;;;;;;;;;;5312696;26;20005;-70
2024/04/19 07:46:04;;;;;;;5.28;3.95;;;;;;;;;;5316175;26;20010;-70
2024/04/19 07:48:30;;;;;;;6.03;4.43;;;;;;;;;;5333916;26;20005;-70
2024/04/19 07:50:56;;;;;;;8.18;4.03;;;;;;;;;;5326361;26;20147;-70
2024/04/19 07:53:22;;;;;;;5.43;4.18;;;;;;;;;;5318719;26;20446;-70
2024/04/19 07:55:49;;;;;;;6.57;4.40;;;;;;;;;;5309626;26;20085;-70
2024/04/19 07:58:15;;;;;;;8.25;4.43;;;;;;;;;;5302615;26;19998;-70
2024/04/19 08:00:41;;;;;;;6.30;4.57;;;;;;;;;;5337423;26;20034;-70
2024/04/19 08:03:07;;;;;;;6.75;4.35;;;;;;;;;;5330498;26;19993;-70
2024/04/19 08:05:33;;;;;;;4.57;3.90;;;;;;;;;;5321400;26;20061;-70
2024/04/19 08:07:59;;;;;;;5.95;4.28;;;;;;;;;;5322999;26;20021;-70
2024/04/19 08:10:26;;;;;;;5.88;4.03;;;;;;;;;;5337792;26;19997;-69
2024/04/19 08:12:52;;;;;;;5.78;3.80;;;;;;;;;;5329878;26;20341;-70
2024/04/19 08:15:18;;;;;;;5.25;3.40;;;;;;;;;;5320978;26;20075;-70
2024/04/19 08:17:45;;;;;;;5.15;3.85;;;;;;;;;;5323899;26;20337;-70
2024/04/19 08:20:11;;;;;;;6.55;3.90;;;;;;;;;;5326398;26;20012;-70
2024/04/19 08:22:37;;;;;;;6.55;3.90;;;;;;;;;;5326729;26;20403;-70
2024/04/19 08:25:04;;;;;;;7.88;4.13;;;;;;;;;;5320628;26;20004;-70
2024/04/19 08:27:30;;;;;;;7.15;4.15;;;;;;;;;;5333436;26;20021;-70
2024/04/19 08:29:56;;;;;;;4.78;3.80;;;;;;;;;;5317434;26;20457;-70
2024/04/19 08:32:22;;;;;;;5.80;4.03;;;;;;;;;;5312332;26;20013;-70
2024/04/19 08:34:52;;;;;;;5.55;4.00;;;;;;;;;;5323620;26;20005;-70
2024/04/19 08:37:18;;;;;;;;;;;;;;;;;;5338759;26;20016;-70
2024/04/19 08:39:44;;;;;;;4.90;4.00;;;;;;;;;;5316092;26;19926;-70
2024/04/19 08:42:10;;;;;;;9.02;4.75;;;;;;;;;;5320566;26;20002;-70
2024/04/19 08:44:40;;;;;;;5.68;3.92;;;;;;;;;;5334998;26;20007;-70
2024/04/19 08:47:06;;;;;;;4.73;3.90;;;;;;;;;;5320910;26;20010;-70
2024/04/19 08:49:32;;;;;;;5.30;3.35;;;;;;;;;;5313599;26;20268;-70
2024/04/19 08:51:59;;;;;;;6.05;3.75;;;;;;;;;;5322280;26;20024;-70
2024/04/19 08:54:26;;;;;;;4.72;4.13;;;;;;;;;;5295861;26;20015;-70
2024/04/19 08:56:54;;;;;;;5.88;4.20;;;;;;;;;;5313283;26;20499;-70
2024/04/19 08:59:20;;;;;;;7.18;4.35;;;;;;;;;;5312527;26;20001;-70
2024/04/19 09:01:46;;;;;;;4.38;3.78;;;;;;;;;;5308146;26;20001;-70
2024/04/19 09:04:12;;;;;;;6.25;4.05;;;;;;;;;;5321296;26;20465;-70
2024/04/19 09:06:38;;;;;;;7.15;3.90;;;;;;;;;;5308645;26;20013;-70
2024/04/19 09:09:04;;;;;;;5.45;3.65;;;;;;;;;;5327437;26;19997;-70
2024/04/19 09:11:30;;;;;;;4.35;3.58;;;;;;;;;;5330049;26;20041;-70
2024/04/19 09:13:56;;;;;;;4.93;3.92;;;;;;;;;;5332852;26;20076;-70
2024/04/19 09:16:23;;;;;;;4.68;3.28;;;;;;;;;;5318638;26;19997;-70
2024/04/19 09:18:49;;;;;;;4.90;3.80;;;;;;;;;;5325190;26;20005;-71
2024/04/19 09:21:17;;;;;;;4.97;4.07;;;;;;;;;;5311826;26;20014;-71
2024/04/19 09:23:42;;;;;;;4.18;3.65;;;;;;;;;;5319776;26;20023;-70
2024/04/19 09:26:08;;;;;;;4.97;3.90;;;;;;;;;;5323300;26;20013;-70
2024/04/19 09:28:34;;;;;;;5.15;3.72;;;;;;;;;;5338866;26;20001;-70
2024/04/19 09:31:01;;;;;;;6.03;3.92;;;;;;;;;;5323611;26;20453;-70
2024/04/19 09:33:27;;;;;;;6.32;4.28;;;;;;;;;;5328062;26;20012;-70
2024/04/19 09:35:56;;;;;;;6.15;4.43;;;;;;;;;;5330911;26;20024;-70
2024/04/19 09:38:22;;;;;;;6.57;4.40;;;;;;;;;;5309810;26;20017;-70
2024/04/19 09:40:49;;;;;;;5.35;3.92;;;;;;;;;;5314421;26;20029;-70
2024/04/19 09:43:16;;;;;;;5.97;4.63;;;;;;;;;;5311275;26;20079;-71
2024/04/19 09:45:47;;;;;;;6.38;4.32;;;;;;;;;;5333690;26;20538;-70
2024/04/19 09:48:17;;;;;;;5.70;4.50;;;;;;;;;;5292395;26;20010;-70
2024/04/19 09:50:46;;;;;;;6.72;5.03;;;;;;;;;;5323638;26;20006;-70
2024/04/19 09:53:17;;;;;;;6.72;4.90;;;;;;;;;;5331810;26;20005;-70
2024/04/19 09:55:55;;;;;;;5.03;4.28;;;;;;;;;;5334151;26;20449;-70
2024/04/19 09:58:21;;;;;;;7.10;4.78;;;;;;;;;;5315178;26;19997;-70
2024/04/19 10:00:48;;;;;;;5.03;4.18;;;;;;;;;;5331506;26;20028;-70
2024/04/19 10:03:18;;;;;;;6.07;4.70;;;;;;;;;;5337623;26;20001;-70
2024/04/19 10:05:45;;;;;;;5.97;4.40;;;;;;;;;;5292382;26;20083;-70
2024/04/19 10:08:11;;;;;;;6.28;4.70;;;;;;;;;;5285954;27;20010;-70
2024/04/19 10:10:37;;;;;;;7.43;5.07;;;;;;;;;;5296765;27;20017;-69
2024/04/19 10:13:03;;;;;;;6.10;4.50;;;;;;;;;;5299366;27;19998;-70
2024/04/19 10:15:29;;;;;;;7.18;5.03;;;;;;;;;;5292495;27;20041;-70
2024/04/19 10:17:55;;;;;;;6.07;5.20;;;;;;;;;;5292645;27;20010;-70
2024/04/19 10:20:23;;;;;;;6.30;5.05;;;;;;;;;;5277385;27;20017;-71
2024/04/19 10:22:52;;;;;;;6.13;5.10;;;;;;;;;;5291661;27;20002;-70
2024/04/19 10:25:24;;;;;;;6.97;5.43;;;;;;;;;;5297421;27;20009;-69
2024/04/19 10:27:51;;;;;;;7.70;5.43;;;;;;;;;;5293362;27;20463;-70
2024/04/19 10:30:18;;;;;;;8.35;5.72;;;;;;;;;;5297224;27;20006;-69
2024/04/19 10:32:53;;;;;;;7.75;5.43;;;;;;;;;;5286126;27;20081;-70
2024/04/19 10:35:21;;;;;;;6.88;5.30;;;;;;;;;;5298779;27;19993;-68
2024/04/19 10:37:47;;;;;;;7.50;5.63;;;;;;;;;;5293863;27;20112;-70
2024/04/19 10:40:14;;;;;;;8.68;6.05;;;;;;;;;;5283455;27;20014;-71
2024/04/19 10:42:40;;;;;;;8.07;5.53;;;;;;;;;;5289743;27;20013;-70
2024/04/19 10:45:12;;;;;;;8.25;6.25;;;;;;;;;;5279160;27;20046;-71
2024/04/19 10:47:38;;;;;;;6.28;5.50;;;;;;;;;;5302916;27;19997;-71
2024/04/19 10:50:05;;;;;;;7.57;5.85;;;;;;;;;;5288164;27;20018;-71
2024/04/19 10:52:33;;;;;;;11.25;5.95;;;;;;;;;;5298426;27;20347;-71
2024/04/19 10:54:59;;;;;;;7.03;5.30;;;;;;;;;;5309141;27;20005;-71
2024/04/19 10:57:29;;;;;;;8.73;4.75;;;;;;;;;;5291155;27;20001;-71
2024/04/19 10:59:55;;;;;;;6.28;4.75;;;;;;;;;;5278150;27;19998;-71
2024/04/19 11:02:21;;;;;;;6.20;5.18;;;;;;;;;;5298285;27;20012;-71
2024/04/19 11:04:48;;;;;;;5.65;4.70;;;;;;;;;;5292348;27;20010;-71
2024/04/19 11:07:14;;;;;;;5.72;4.32;;;;;;;;;;5292320;27;20514;-71
2024/04/19 11:09:40;;;;;;;7.03;4.57;;;;;;;;;;5295975;27;20483;-71
2024/04/19 11:12:06;;;;;;;6.70;4.70;;;;;;;;;;5307903;27;20002;-72
2024/04/19 11:14:32;;;;;;;6.10;4.60;;;;;;;;;;5275957;27;19998;-71
2024/04/19 11:16:58;;;;;;;5.72;4.28;;;;;;;;;;5285364;27;20005;-71
2024/04/19 11:19:24;;;;;;;4.88;3.95;;;;;;;;;;5279590;27;20010;-71
2024/04/19 11:21:50;;;;;;;4.15;3.40;;;;;;;;;;5301119;27;20018;-71
2024/04/19 11:24:17;;;;;;;4.00;3.60;;;;;;;;;;5284872;27;20080;-71
2024/04/19 11:26:43;;;;;;;4.55;3.95;;;;;;;;;;5301116;27;20012;-72
2024/04/19 11:29:09;;;;;;;6.03;3.63;;;;;;;;;;5307915;27;20330;-70
2024/04/19 11:31:35;;;;;;;3.80;3.08;;;;;;;;;;5287112;27;20001;-71
2024/04/19 11:34:01;;;;;;;3.10;2.80;;;;;;;;;;5289950;27;20013;-71
2024/04/19 11:36:27;;;;;;;3.38;2.78;;;;;;;;;;5298262;27;19998;-71
2024/04/19 11:38:55;;;;;;;3.38;2.80;;;;;;;;;;5286243;27;20003;-71
2024/04/19 11:41:21;;;;;;;3.50;2.78;;;;;;;;;;5308223;27;20002;-71
2024/04/19 11:43:47;;;;;;;3.05;2.67;;;;;;;;;;5266500;27;20241;-71
2024/04/19 11:46:20;;;;;;;4.38;2.58;;;;;;;;;;5308034;27;20006;-71
2024/04/19 11:48:46;;;;;;;3.50;2.97;;;;;;;;;;5292236;27;20006;-70
2024/04/19 11:51:13;;;;;;;3.05;2.47;;;;;;;;;;5288893;27;19998;-70
2024/04/19 11:53:40;;;;;;;2.88;2.58;;;;;;;;;;5270599;27;20018;-70
2024/04/19 11:56:07;;;;;;;2.95;2.55;;;;;;;;;;5283264;27;20002;-70
2024/04/19 11:58:34;;;;;;;2.92;2.40;;;;;;;;;;5281556;27;20347;-70
2024/04/19 12:01:00;;;;;;;2.72;2.40;;;;;;;;;;5277710;27;20127;-71
2024/04/19 12:03:26;;;;;;;2.38;2.10;;;;;;;;;;5303638;27;20037;-71
2024/04/19 12:05:52;;;;;;;4.18;2.67;;;;;;;;;;5281782;27;20014;-71
2024/04/19 12:08:18;;;;;;;3.20;2.20;;;;;;;;;;5286847;27;20107;-71
2024/04/19 12:10:44;;;;;;;3.63;2.45;;;;;;;;;;5297293;27;20013;-70
2024/04/19 12:13:10;;;;;;;2.10;1.90;;;;;;;;;;5290769;27;20002;-71
2024/04/19 12:15:36;;;;;;;3.00;1.70;;;;;;;;;;5286923;27;20016;-71
2024/04/19 12:18:02;;;;;;;2.10;1.90;;;;;;;;;;5289834;27;19998;-71
2024/04/19 12:20:28;;;;;;;2.78;1.88;;;;;;;;;;5255508;27;20340;-70
2024/04/19 12:22:54;;;;;;;3.58;1.80;;;;;;;;;;5289665;27;20025;-70
2024/04/19 12:25:20;;;;;;;1.83;1.73;;;;;;;;;;5291830;27;20018;-70
2024/04/19 12:27:46;;;;;;;3.17;1.73;;;;;;;;;;5259318;27;20002;-71
2024/04/19 12:30:12;;;;;;;2.60;2.10;;;;;;;;;;5308611;27;20453;-71
2024/04/19 12:32:40;;;;;;;2.22;1.77;;;;;;;;;;5291007;27;20468;-71
2024/04/19 12:35:06;;;;;;;2.92;1.83;;;;;;;;;;5287473;27;20010;-71
2024/04/19 12:37:32;;;;;;;1.83;1.40;;;;;;;;;;5265836;27;20799;-71
2024/04/19 12:39:58;;;;;;;2.67;1.55;;;;;;;;;;5275627;27;20002;-71
2024/04/19 12:42:24;;;;;;;2.03;1.85;;;;;;;;;;5279095;27;20002;-70
2024/04/19 12:44:53;;;;;;;2.70;1.67;;;;;;;;;;5272544;27;20014;-70
2024/04/19 12:47:19;;;;;;;2.10;1.60;;;;;;;;;;5276046;27;20455;-70
2024/04/19 12:49:45;;;;;;;2.80;1.80;;;;;;;;;;5282227;27;20014;-70
2024/04/19 12:52:11;;;;;;;2.70;1.60;;;;;;;;;;5287004;27;19998;-71
2024/04/19 12:54:37;;;;;;;2.20;1.83;;;;;;;;;;5301950;27;20034;-70
2024/04/19 12:57:04;;;;;;;1.73;1.60;;;;;;;;;;5299230;27;20005;-70
2024/04/19 12:59:30;;;;;;;2.38;1.60;;;;;;;;;;5296683;27;20005;-70
2024/04/19 13:01:56;;;;;;;2.80;1.88;;;;;;;;;;5298312;27;20013;-70
2024/04/19 13:04:22;;;;;;;1.90;1.75;;;;;;;;;;5317560;26;20016;-70
2024/04/19 13:06:48;;;;;;;1.67;1.55;;;;;;;;;;5313285;26;20005;-70
2024/04/19 13:09:15;;;;;;;3.40;2.03;;;;;;;;;;5295279;26;20422;-70
2024/04/19 13:11:41;;;;;;;1.90;1.40;;;;;;;;;;5317161;26;20333;-70
2024/04/19 13:14:07;;;;;;;2.15;1.60;;;;;;;;;;5335330;26;20013;-70
2024/04/19 13:16:34;;;;;;;1.80;1.30;;;;;;;;;;5316532;26;20012;-70
2024/04/19 13:19:00;;;;;;;1.65;1.55;;;;;;;;;;5324573;26;20005;-72
2024/04/19 13:21:28;;;;;;;1.73;1.63;;;;;;;;;;5336289;26;20354;-70
2024/04/19 13:23:54;;;;;;;1.30;1.20;;;;;;;;;;5321729;26;20335;-70
2024/04/19 13:26:22;;;;;;;1.73;1.45;;;;;;;;;;5310434;26;20013;-70
2024/04/19 13:28:52;;;;;;;3.15;1.30;;;;;;;;;;5317577;26;20005;-70
2024/04/19 13:31:18;;;;;;;1.42;1.33;;;;;;;;;;5318567;26;20001;-70
2024/04/19 13:33:44;;;;;;;2.35;1.10;;;;;;;;;;5290151;26;20006;-70
2024/04/19 13:36:10;;;;;;;2.42;1.20;;;;;;;;;;5311170;26;20953;-70
2024/04/19 13:38:36;;;;;;;1.70;1.48;;;;;;;;;;5313484;26;20016;-71
2024/04/19 13:41:03;;;;;;;1.48;1.13;;;;;;;;;;5322838;26;20020;-71
2024/04/19 13:43:30;;;;;;;2.90;1.48;;;;;;;;;;5315765;26;20337;-72
2024/04/19 13:45:56;;;;;;;2.30;1.13;;;;;;;;;;5312892;26;20001;-72
2024/04/19 13:48:23;;;;;;;1.13;1.02;;;;;;;;;;5324546;26;20453;-73
2024/04/19 13:50:49;;;;;;;2.13;1.60;;;;;;;;;;5322336;26;20016;-72
2024/04/19 13:53:15;;;;;;;1.33;1.20;;;;;;;;;;5321892;26;20009;-71
2024/04/19 13:55:41;;;;;;;2.85;1.38;;;;;;;;;;5323979;26;20015;-72
2024/04/19 13:58:09;;;;;;;1.10;1.00;;;;;;;;;;5329338;26;20011;-71
2024/04/19 14:00:35;;;;;;;2.95;1.38;;;;;;;;;;5324839;26;19993;-71
2024/04/19 14:03:01;;;;;;;1.33;1.10;;;;;;;;;;5317592;26;20481;-71
2024/04/19 14:05:27;;;;;;;1.85;1.20;;;;;;;;;;5321234;26;20001;-71
2024/04/19 14:07:53;;;;;;;1.52;1.30;;;;;;;;;;5292364;26;20048;-71
2024/04/19 14:10:19;;;;;;;1.67;1.13;;;;;;;;;;5323406;26;20021;-71
2024/04/19 14:12:52;;;;;;;3.00;1.23;;;;;;;;;;5319544;26;20010;-71
2024/04/19 14:15:18;;;;;;;1.70;1.40;;;;;;;;;;5324458;26;20006;-72
2024/04/19 14:17:44;;;;;;;1.42;1.20;;;;;;;;;;5329276;26;20015;-71
2024/04/19 14:20:10;;;;;;;2.45;1.63;;;;;;;;;;5313765;26;20394;-71
2024/04/19 14:22:36;;;;;;;2.53;1.40;;;;;;;;;;5324894;26;20071;-71
2024/04/19 14:25:02;;;;;;;1.85;1.05;;;;;;;;;;5339416;26;20537;-71
2024/04/19 14:27:28;;;;;;;1.10;1.00;;;;;;;;;;5322858;26;20024;-71